Luoyang, China
Current Conditions -  °F | °C
As of 1:00 PM on Saturday 20 Dec 2014 (Local Time) from ZHCC Reporting Station
Clear Clear  
Wind Chill: 31°   Ceiling: Unl
Heat Index: 37°   Visibility: 5mi
Dew Point:   Wind: 9mph
Humidity: 22%   Direction: 60°ENE
Pressure: 30.42"   Gusts: NA
Location:  34.68°N, 112.47°E
Report Text: ZHCC 200500Z 06004MPS 010V100 8000 NSC 03/M17 Q1030 NOSIG
Loading
Personal Weather Stations






























Interactive Weather Map New forecast layout! Learn more

10-Day Weather Forecast

Advertisements
Track Severe Weather on mobile